createdAt,value
2018-07-30T00:01:08.281Z,16.90
2018-07-30T00:03:36.711Z,16.90
2018-07-30T00:06:05.174Z,16.90
2018-07-30T00:08:33.797Z,16.90
2018-07-30T00:11:02.256Z,16.90
2018-07-30T00:13:30.776Z,16.90
2018-07-30T00:15:59.285Z,16.90
2018-07-30T00:18:27.833Z,16.90
2018-07-30T00:20:56.404Z,16.90
2018-07-30T00:23:25.027Z,17.00
2018-07-30T00:25:53.459Z,17.00
2018-07-30T00:28:22.125Z,17.00
2018-07-30T00:30:50.589Z,17.10
2018-07-30T00:33:19.111Z,17.10
2018-07-30T00:35:47.505Z,16.90
2018-07-30T00:38:16.277Z,16.90
2018-07-30T00:43:13.080Z,16.90
2018-07-30T00:45:41.543Z,16.90
2018-07-30T00:48:10.040Z,16.90
2018-07-30T00:50:38.557Z,16.80
2018-07-30T00:53:07.288Z,16.70
2018-07-30T00:55:35.857Z,16.70
2018-07-30T00:58:04.391Z,16.60
2018-07-30T01:00:32.991Z,16.70
2018-07-30T01:03:01.394Z,16.70
2018-07-30T01:05:29.929Z,16.70
2018-07-30T01:07:58.365Z,16.70
2018-07-30T01:10:27.210Z,16.80
2018-07-30T01:12:55.726Z,16.80
2018-07-30T01:15:24.325Z,16.80
2018-07-30T01:17:52.855Z,16.80
2018-07-30T01:20:21.300Z,16.80
2018-07-30T01:22:49.829Z,16.80
2018-07-30T01:25:18.261Z,16.70
2018-07-30T01:27:46.688Z,16.70
2018-07-30T01:30:15.197Z,16.70
2018-07-30T01:32:43.715Z,16.70
2018-07-30T01:35:12.212Z,16.70
2018-07-30T01:37:40.768Z,16.70
2018-07-30T01:40:09.273Z,16.70
2018-07-30T01:42:37.906Z,16.60
2018-07-30T01:45:06.484Z,16.60
2018-07-30T01:47:34.913Z,16.60
2018-07-30T01:50:03.443Z,16.60
2018-07-30T01:52:32.004Z,16.50
2018-07-30T01:55:00.628Z,16.50
2018-07-30T01:57:29.303Z,16.40
2018-07-30T01:59:57.786Z,16.30
2018-07-30T02:02:26.474Z,16.40
2018-07-30T02:04:55.161Z,16.40
2018-07-30T02:07:23.811Z,16.50
2018-07-30T02:09:52.769Z,16.60
2018-07-30T02:12:21.181Z,16.70
2018-07-30T02:14:50.204Z,16.70
2018-07-30T02:17:18.740Z,16.80
2018-07-30T02:19:47.252Z,16.80
2018-07-30T02:22:15.930Z,16.90
2018-07-30T02:24:44.565Z,16.90
2018-07-30T02:27:13.093Z,17.00
2018-07-30T02:29:41.792Z,17.00
2018-07-30T02:32:10.666Z,17.00
2018-07-30T02:34:39.192Z,17.10
2018-07-30T02:37:07.817Z,17.10
2018-07-30T02:39:36.369Z,17.20
2018-07-30T02:42:05.037Z,17.20
2018-07-30T02:44:33.638Z,17.30
2018-07-30T02:47:02.381Z,17.30
2018-07-30T02:49:30.890Z,17.30
2018-07-30T02:51:59.549Z,17.30
2018-07-30T02:54:28.069Z,17.40
2018-07-30T02:56:56.701Z,17.40
2018-07-30T02:59:25.190Z,17.40
2018-07-30T03:01:53.828Z,17.40
2018-07-30T03:04:22.453Z,17.40
2018-07-30T03:06:51.141Z,17.50
2018-07-30T03:09:19.772Z,17.40
2018-07-30T03:11:48.284Z,17.40
2018-07-30T03:14:16.829Z,17.40
2018-07-30T03:16:45.273Z,17.50
2018-07-30T03:19:13.694Z,17.50
2018-07-30T03:21:42.160Z,17.60
2018-07-30T03:24:10.729Z,17.70
2018-07-30T03:26:39.192Z,17.80
2018-07-30T03:29:07.733Z,17.80
2018-07-30T03:31:36.305Z,17.90
2018-07-30T03:34:05.029Z,18.00
2018-07-30T03:36:33.636Z,18.10
2018-07-30T03:39:02.104Z,18.10
2018-07-30T03:41:30.552Z,18.20
2018-07-30T03:43:59.065Z,18.30
2018-07-30T03:46:28.368Z,18.30
2018-07-30T03:48:56.904Z,18.40
2018-07-30T03:51:25.517Z,18.50
2018-07-30T03:53:54.049Z,18.60
2018-07-30T03:56:22.626Z,18.60
2018-07-30T03:58:51.221Z,18.70
2018-07-30T04:01:19.857Z,18.80
2018-07-30T04:03:48.297Z,18.80
2018-07-30T04:06:17.046Z,18.80
2018-07-30T04:08:45.685Z,18.90
2018-07-30T04:11:14.262Z,19.00
2018-07-30T04:13:42.743Z,19.00
2018-07-30T04:16:11.285Z,19.10
2018-07-30T04:18:39.925Z,19.20
2018-07-30T04:21:08.624Z,19.30
2018-07-30T04:23:37.290Z,19.30
2018-07-30T04:26:05.878Z,19.50
2018-07-30T04:28:34.461Z,19.60
2018-07-30T04:31:02.977Z,19.60
2018-07-30T04:33:31.412Z,19.80
2018-07-30T04:36:00.093Z,19.80
2018-07-30T04:38:28.636Z,19.90
2018-07-30T04:40:57.307Z,20.00
2018-07-30T04:43:26.005Z,20.10
2018-07-30T04:45:54.640Z,20.30
2018-07-30T04:48:23.394Z,20.50
2018-07-30T04:50:51.996Z,20.60
2018-07-30T04:53:20.410Z,20.80
2018-07-30T04:55:48.833Z,21.00
2018-07-30T04:58:17.324Z,21.10
2018-07-30T05:00:45.806Z,21.30
2018-07-30T05:03:14.256Z,21.40
2018-07-30T05:05:42.989Z,21.50
2018-07-30T05:08:11.445Z,21.70
2018-07-30T05:10:39.884Z,21.90
2018-07-30T05:13:08.938Z,22.00
2018-07-30T05:15:37.502Z,22.20
2018-07-30T05:18:06.009Z,22.30
2018-07-30T05:20:34.497Z,22.50
2018-07-30T05:23:02.960Z,22.70
2018-07-30T05:25:31.561Z,22.80
2018-07-30T05:28:00.009Z,22.90
2018-07-30T05:30:28.562Z,23.00
2018-07-30T05:32:57.078Z,22.90
2018-07-30T05:35:25.782Z,23.00
2018-07-30T05:37:54.313Z,23.10
2018-07-30T05:40:22.820Z,23.20
2018-07-30T05:42:51.554Z,23.20
2018-07-30T05:45:20.140Z,23.30
2018-07-30T05:47:48.654Z,23.30
2018-07-30T05:50:17.367Z,23.40
2018-07-30T05:52:46.011Z,23.40
2018-07-30T05:55:14.554Z,23.40
2018-07-30T05:57:43.224Z,23.50
2018-07-30T06:02:40.161Z,23.60
2018-07-30T06:05:10.140Z,23.70
2018-07-30T06:07:38.562Z,23.90
2018-07-30T06:10:07.440Z,24.10
2018-07-30T06:12:35.905Z,24.20
2018-07-30T06:15:04.922Z,24.20
2018-07-30T06:17:33.541Z,24.30
2018-07-30T06:20:02.428Z,24.40
2018-07-30T06:22:31.069Z,24.50
2018-07-30T06:24:59.592Z,24.50
2018-07-30T06:27:28.455Z,24.50
2018-07-30T06:29:56.947Z,24.50
2018-07-30T06:32:25.800Z,24.50
2018-07-30T06:34:54.293Z,24.50
2018-07-30T06:37:22.760Z,24.50
2018-07-30T06:39:51.215Z,24.50
2018-07-30T06:42:19.705Z,24.60
2018-07-30T06:44:48.317Z,24.70
2018-07-30T06:47:16.856Z,24.70
2018-07-30T06:49:45.325Z,24.80
2018-07-30T06:52:13.852Z,25.00
2018-07-30T06:54:42.383Z,25.00
2018-07-30T06:57:11.089Z,25.20
2018-07-30T06:59:39.536Z,25.30
2018-07-30T07:02:08.055Z,25.40
2018-07-30T07:04:36.834Z,25.50
2018-07-30T07:07:05.461Z,25.50
2018-07-30T07:09:34.120Z,25.60
2018-07-30T07:12:02.727Z,25.60
2018-07-30T07:14:31.137Z,25.70
2018-07-30T07:16:59.820Z,25.80
2018-07-30T07:19:28.463Z,25.90
2018-07-30T07:21:57.072Z,25.90
2018-07-30T07:24:25.442Z,26.00
2018-07-30T07:29:22.255Z,26.20
2018-07-30T07:31:50.737Z,26.20
2018-07-30T07:34:19.798Z,26.30
2018-07-30T07:36:48.862Z,26.30
2018-07-30T07:39:17.541Z,26.30
2018-07-30T07:41:46.101Z,26.30
2018-07-30T07:44:14.618Z,26.40
2018-07-30T07:46:43.314Z,26.40
2018-07-30T07:49:11.876Z,26.50
2018-07-30T07:51:40.340Z,26.50
2018-07-30T07:54:09.153Z,26.50
2018-07-30T07:56:37.661Z,26.60
2018-07-30T07:59:06.182Z,26.60
2018-07-30T08:01:34.704Z,26.70
2018-07-30T08:04:03.257Z,26.70
2018-07-30T08:06:31.765Z,26.80
2018-07-30T08:09:00.223Z,26.90
2018-07-30T08:11:28.781Z,27.00
2018-07-30T08:13:57.386Z,27.00
2018-07-30T08:16:25.964Z,27.00
2018-07-30T08:18:54.720Z,27.10
2018-07-30T08:21:23.281Z,27.20
2018-07-30T08:23:51.858Z,27.20
2018-07-30T08:26:20.322Z,27.20
2018-07-30T08:28:48.918Z,27.30
2018-07-30T08:31:17.476Z,27.30
2018-07-30T08:33:46.111Z,27.40
2018-07-30T08:36:14.647Z,27.50
2018-07-30T08:41:11.519Z,27.60
2018-07-30T08:43:41.047Z,27.70
2018-07-30T08:46:09.469Z,27.70
2018-07-30T08:48:38.048Z,27.70
2018-07-30T08:51:06.751Z,27.70
2018-07-30T08:53:35.284Z,27.70
2018-07-30T08:56:03.970Z,27.80
2018-07-30T08:58:32.609Z,27.80
2018-07-30T09:01:01.257Z,27.90
2018-07-30T09:03:29.881Z,27.90
2018-07-30T09:05:58.409Z,28.00
2018-07-30T09:08:26.925Z,28.10
2018-07-30T09:10:55.493Z,28.20
2018-07-30T09:13:24.132Z,28.30
2018-07-30T09:15:52.897Z,28.40
2018-07-30T09:18:21.589Z,28.40
2018-07-30T09:20:49.908Z,28.50
2018-07-30T09:23:18.325Z,28.50
2018-07-30T09:25:46.913Z,28.50
2018-07-30T09:28:15.429Z,28.60
2018-07-30T09:30:44.013Z,28.70
2018-07-30T09:33:12.629Z,28.80
2018-07-30T09:38:09.361Z,29.00
2018-07-30T09:40:37.825Z,29.00
2018-07-30T09:43:06.466Z,29.10
2018-07-30T09:45:35.081Z,29.30
2018-07-30T09:48:03.745Z,29.40
2018-07-30T09:50:32.401Z,29.40
2018-07-30T09:53:01.066Z,29.50
2018-07-30T09:55:29.761Z,29.60
2018-07-30T09:57:58.389Z,29.70
2018-07-30T10:00:32.393Z,29.70
2018-07-30T10:03:01.084Z,29.90
2018-07-30T10:05:29.801Z,29.90
2018-07-30T10:07:58.229Z,30.00
2018-07-30T10:10:26.764Z,30.00
2018-07-30T10:12:55.204Z,30.00
2018-07-30T10:15:23.740Z,30.10
2018-07-30T10:17:52.220Z,30.30
2018-07-30T10:20:20.738Z,30.30
2018-07-30T10:22:49.201Z,30.40
2018-07-30T10:25:17.831Z,30.50
2018-07-30T10:27:46.509Z,30.40
2018-07-30T10:30:15.025Z,30.40
2018-07-30T10:32:43.709Z,30.40
2018-07-30T10:35:12.349Z,30.40
2018-07-30T10:37:40.870Z,30.50
2018-07-30T10:40:09.464Z,30.50
2018-07-30T10:42:38.065Z,30.50
2018-07-30T10:45:06.673Z,30.50
2018-07-30T10:47:35.435Z,30.50
2018-07-30T10:52:32.551Z,30.50
2018-07-30T10:55:01.300Z,30.50
2018-07-30T10:57:29.936Z,30.50
2018-07-30T10:59:58.389Z,30.50
2018-07-30T11:02:26.893Z,30.50
2018-07-30T11:04:55.457Z,30.40
2018-07-30T11:07:24.166Z,30.40
2018-07-30T11:09:52.685Z,30.30
2018-07-30T11:12:21.158Z,30.30
2018-07-30T11:14:49.784Z,30.30
2018-07-30T11:17:18.429Z,30.30
2018-07-30T11:19:46.897Z,30.40
2018-07-30T11:22:15.353Z,30.50
2018-07-30T11:24:43.948Z,30.60
2018-07-30T11:27:12.402Z,30.80
2018-07-30T11:29:41.174Z,30.80
2018-07-30T11:32:09.688Z,30.80
2018-07-30T11:34:38.393Z,30.90
2018-07-30T11:37:07.093Z,31.10
2018-07-30T11:39:35.833Z,31.10
2018-07-30T11:42:04.265Z,31.20
2018-07-30T11:44:32.806Z,31.20
2018-07-30T11:47:01.257Z,31.30
2018-07-30T11:49:29.867Z,31.40
2018-07-30T11:54:26.920Z,31.50
2018-07-30T11:56:55.444Z,31.60
2018-07-30T11:59:23.964Z,31.70
2018-07-30T12:01:52.563Z,31.90
2018-07-30T12:04:21.021Z,32.00
2018-07-30T12:06:49.474Z,32.20
2018-07-30T12:09:17.989Z,32.30
2018-07-30T12:11:46.447Z,32.40
2018-07-30T12:14:14.867Z,32.40
2018-07-30T12:16:43.448Z,32.30
2018-07-30T12:19:11.849Z,32.20
2018-07-30T12:21:40.474Z,32.30
2018-07-30T12:24:09.298Z,32.30
2018-07-30T12:26:37.878Z,32.40
2018-07-30T12:29:06.414Z,32.60
2018-07-30T12:34:03.233Z,32.70
2018-07-30T12:36:31.775Z,32.80
2018-07-30T12:39:07.960Z,32.90
2018-07-30T12:41:37.009Z,32.90
2018-07-30T12:44:05.744Z,32.90
2018-07-30T12:46:34.229Z,32.90
2018-07-30T12:49:02.937Z,33.00
2018-07-30T12:51:31.569Z,33.00
2018-07-30T12:54:00.185Z,33.10
2018-07-30T12:56:28.764Z,33.10
2018-07-30T12:58:57.386Z,33.10
2018-07-30T13:01:26.146Z,33.20
2018-07-30T13:03:54.677Z,33.20
2018-07-30T13:06:23.112Z,33.10
2018-07-30T13:08:51.649Z,33.00
2018-07-30T13:11:20.285Z,32.80
2018-07-30T13:13:48.803Z,32.80
2018-07-30T13:16:17.517Z,32.70
2018-07-30T13:18:46.101Z,32.60
2018-07-30T13:21:14.639Z,32.40
2018-07-30T13:23:43.243Z,32.40
2018-07-30T13:26:11.804Z,32.50
2018-07-30T13:28:40.274Z,32.50
2018-07-30T13:31:09.072Z,32.60
2018-07-30T13:33:37.513Z,32.70
2018-07-30T13:36:06.006Z,32.70
2018-07-30T13:38:35.109Z,32.70
2018-07-30T13:41:03.633Z,32.70
2018-07-30T13:43:32.521Z,32.60
2018-07-30T13:46:01.028Z,32.70
2018-07-30T13:48:29.683Z,32.70
2018-07-30T13:50:58.212Z,32.60
2018-07-30T13:53:26.780Z,32.60
2018-07-30T13:55:55.428Z,32.60
2018-07-30T13:58:23.960Z,32.70
2018-07-30T14:00:52.611Z,32.90
2018-07-30T14:03:21.161Z,33.10
2018-07-30T14:05:49.737Z,33.20
2018-07-30T14:08:18.196Z,33.30
2018-07-30T14:10:46.733Z,33.20
2018-07-30T14:13:15.376Z,33.20
2018-07-30T14:15:43.945Z,33.10
2018-07-30T14:18:12.546Z,33.00
2018-07-30T14:20:41.145Z,33.00
2018-07-30T14:23:09.650Z,33.00
2018-07-30T14:25:38.210Z,33.20
2018-07-30T14:28:06.775Z,33.30
2018-07-30T14:30:35.295Z,33.50
2018-07-30T14:33:03.925Z,33.50
2018-07-30T14:35:32.456Z,33.60
2018-07-30T14:38:00.983Z,33.70
2018-07-30T14:40:29.673Z,33.80
2018-07-30T14:42:58.264Z,33.80
2018-07-30T14:45:27.054Z,33.80
2018-07-30T14:47:55.736Z,33.80
2018-07-30T14:50:24.154Z,33.80
2018-07-30T14:52:52.678Z,33.90
2018-07-30T14:55:21.149Z,33.90
2018-07-30T14:57:49.721Z,33.90
2018-07-30T15:00:18.301Z,34.10
2018-07-30T15:02:46.737Z,34.30
2018-07-30T15:05:19.559Z,34.40
2018-07-30T15:07:48.132Z,34.40
2018-07-30T15:10:16.613Z,34.60
2018-07-30T15:12:45.129Z,34.70
2018-07-30T15:15:13.752Z,34.90
2018-07-30T15:17:43.061Z,35.20
2018-07-30T15:20:11.568Z,35.40
2018-07-30T15:22:40.010Z,35.50
2018-07-30T15:25:08.499Z,35.40
2018-07-30T15:30:06.438Z,35.20
2018-07-30T15:32:35.169Z,35.30
2018-07-30T15:35:03.743Z,35.20
2018-07-30T15:37:32.344Z,35.00
2018-07-30T15:40:00.802Z,34.90
2018-07-30T15:42:29.382Z,34.60
2018-07-30T15:44:57.948Z,34.50
2018-07-30T15:47:26.494Z,34.30
2018-07-30T15:49:54.947Z,34.20
2018-07-30T15:52:23.420Z,34.30
2018-07-30T15:54:51.960Z,34.30
2018-07-30T15:57:20.493Z,34.40
2018-07-30T15:59:48.950Z,34.40
2018-07-30T16:02:17.359Z,34.40
2018-07-30T16:04:45.877Z,34.50
2018-07-30T16:07:14.314Z,34.60
2018-07-30T16:09:42.892Z,34.60
2018-07-30T16:12:11.607Z,34.70
2018-07-30T16:14:40.160Z,34.90
2018-07-30T16:17:08.695Z,35.20
2018-07-30T16:19:37.185Z,35.70
2018-07-30T16:22:05.852Z,36.10
2018-07-30T16:24:34.332Z,36.60
2018-07-30T16:27:02.827Z,37.00
2018-07-30T16:29:31.377Z,37.30
2018-07-30T16:31:59.820Z,37.70
2018-07-30T16:34:28.299Z,38.10
2018-07-30T16:36:56.863Z,38.40
2018-07-30T16:39:25.278Z,38.60
2018-07-30T16:41:54.001Z,38.90
2018-07-30T16:44:22.565Z,39.20
2018-07-30T16:46:51.102Z,39.50
2018-07-30T16:49:19.673Z,39.60
2018-07-30T16:51:48.474Z,39.80
2018-07-30T16:54:16.976Z,39.90
2018-07-30T16:56:45.716Z,40.10
2018-07-30T16:59:14.158Z,40.10
2018-07-30T17:01:42.613Z,40.10
2018-07-30T17:04:11.119Z,40.10
2018-07-30T17:06:39.770Z,40.20
2018-07-30T17:09:10.626Z,39.70
2018-07-30T17:14:07.477Z,37.70
2018-07-30T17:16:35.956Z,36.50
2018-07-30T17:19:04.837Z,35.60
2018-07-30T17:21:33.390Z,34.90
2018-07-30T17:24:01.998Z,34.20
2018-07-30T17:26:30.581Z,33.70
2018-07-30T17:28:59.001Z,33.30
2018-07-30T17:31:27.550Z,32.90
2018-07-30T17:33:56.113Z,32.60
2018-07-30T17:36:24.521Z,32.20
2018-07-30T17:38:52.979Z,31.90
2018-07-30T17:41:21.569Z,31.80
2018-07-30T17:43:50.013Z,31.60
2018-07-30T17:46:18.504Z,31.40
2018-07-30T17:48:47.222Z,31.30
2018-07-30T17:51:15.648Z,31.20
2018-07-30T17:53:44.085Z,31.10
2018-07-30T17:56:12.589Z,30.90
2018-07-30T17:58:41.068Z,30.80
2018-07-30T18:01:09.483Z,30.70
2018-07-30T18:03:38.008Z,30.50
2018-07-30T18:06:06.586Z,30.40
2018-07-30T18:08:34.997Z,30.30
2018-07-30T18:11:03.656Z,30.10
2018-07-30T18:13:32.201Z,30.00
2018-07-30T18:16:00.763Z,29.80
2018-07-30T18:18:29.377Z,29.70
2018-07-30T18:20:57.869Z,29.50
2018-07-30T18:23:26.324Z,29.40
2018-07-30T18:25:54.798Z,29.30
2018-07-30T18:28:23.322Z,29.20
2018-07-30T18:30:51.829Z,29.00
2018-07-30T18:33:20.384Z,28.90
2018-07-30T18:35:48.889Z,28.80
2018-07-30T18:38:17.377Z,28.60
2018-07-30T18:40:46.005Z,28.50
2018-07-30T18:43:14.402Z,28.40
2018-07-30T18:45:42.937Z,28.30
2018-07-30T18:48:11.401Z,28.20
2018-07-30T18:50:39.931Z,28.00
2018-07-30T18:53:08.485Z,27.90
2018-07-30T18:55:37.055Z,27.80
2018-07-30T18:58:05.685Z,27.70
2018-07-30T19:00:34.337Z,27.60
2018-07-30T19:03:02.858Z,27.50
2018-07-30T19:05:31.390Z,27.40
2018-07-30T19:07:59.825Z,27.30
2018-07-30T19:10:28.279Z,27.20
2018-07-30T19:12:56.877Z,27.00
2018-07-30T19:15:25.522Z,27.00
2018-07-30T19:17:54.001Z,26.80
2018-07-30T19:20:22.449Z,26.80
2018-07-30T19:22:51.112Z,26.70
2018-07-30T19:25:19.653Z,26.60
2018-07-30T19:27:48.249Z,26.50
2018-07-30T19:32:44.909Z,26.40
2018-07-30T19:35:13.390Z,26.30
2018-07-30T19:40:10.373Z,26.20
2018-07-30T19:42:38.943Z,26.10
2018-07-30T19:45:07.774Z,26.10
2018-07-30T19:47:36.413Z,26.00
2018-07-30T19:50:05.420Z,25.90
2018-07-30T19:52:33.997Z,25.90
2018-07-30T19:55:02.505Z,25.90
2018-07-30T19:57:30.997Z,25.80
2018-07-30T19:59:59.465Z,25.80
2018-07-30T20:02:28.029Z,25.70
2018-07-30T20:04:56.885Z,25.70
2018-07-30T20:07:25.980Z,25.60
2018-07-30T20:09:54.492Z,25.60
2018-07-30T20:12:23.023Z,25.50
2018-07-30T20:14:51.571Z,25.50
2018-07-30T20:17:20.061Z,25.40
2018-07-30T20:19:48.748Z,25.40
2018-07-30T20:22:17.220Z,25.30
2018-07-30T20:24:45.745Z,25.20
2018-07-30T20:27:14.160Z,25.20
2018-07-30T20:29:42.589Z,25.10
2018-07-30T20:32:11.100Z,25.10
2018-07-30T20:34:39.728Z,25.00
2018-07-30T20:37:08.271Z,24.90
2018-07-30T20:39:36.777Z,24.90
2018-07-30T20:42:05.463Z,24.80
2018-07-30T20:44:34.031Z,24.80
2018-07-30T20:47:02.589Z,24.70
2018-07-30T20:49:31.314Z,24.70
2018-07-30T20:52:00.059Z,24.60
2018-07-30T20:54:28.673Z,24.60
2018-07-30T20:56:57.191Z,24.60
2018-07-30T20:59:25.624Z,24.50
2018-07-30T21:01:54.178Z,24.50
2018-07-30T21:04:22.824Z,24.50
2018-07-30T21:06:51.514Z,24.40
2018-07-30T21:09:20.264Z,24.40
2018-07-30T21:11:48.992Z,24.30
2018-07-30T21:14:17.973Z,24.30
2018-07-30T21:16:46.494Z,24.30
2018-07-30T21:19:15.135Z,24.30
2018-07-30T21:21:43.676Z,24.20
2018-07-30T21:24:12.286Z,24.20
2018-07-30T21:26:40.865Z,24.20
2018-07-30T21:29:09.314Z,24.10
2018-07-30T21:31:37.810Z,24.10
2018-07-30T21:34:06.501Z,24.00
2018-07-30T21:36:35.021Z,24.00
2018-07-30T21:39:03.946Z,24.00
2018-07-30T21:41:32.586Z,24.00
2018-07-30T21:44:01.137Z,23.90
2018-07-30T21:46:29.593Z,23.90
2018-07-30T21:48:58.289Z,23.90
2018-07-30T21:51:26.790Z,23.80
2018-07-30T21:53:55.337Z,23.80
2018-07-30T21:56:23.843Z,23.80
2018-07-30T21:58:52.445Z,23.80
2018-07-30T22:01:21.082Z,23.70
2018-07-30T22:06:17.877Z,23.60
2018-07-30T22:08:46.469Z,23.60
2018-07-30T22:11:14.981Z,23.50
2018-07-30T22:13:43.609Z,23.50
2018-07-30T22:16:12.197Z,23.40
2018-07-30T22:18:40.798Z,23.40
2018-07-30T22:21:09.346Z,23.30
2018-07-30T22:23:37.854Z,23.30
2018-07-30T22:26:06.633Z,23.20
2018-07-30T22:28:35.081Z,23.20
2018-07-30T22:31:03.861Z,23.10
2018-07-30T22:33:32.325Z,23.10
2018-07-30T22:36:00.763Z,23.10
2018-07-30T22:38:29.533Z,23.00
2018-07-30T22:40:58.050Z,22.90
2018-07-30T22:43:26.585Z,22.90
2018-07-30T22:45:55.025Z,22.80
2018-07-30T22:48:23.498Z,22.70
2018-07-30T22:50:51.942Z,22.60
2018-07-30T22:53:20.613Z,22.60
2018-07-30T22:55:49.365Z,22.50
2018-07-30T22:58:17.913Z,22.50
2018-07-30T23:00:46.542Z,22.40
2018-07-30T23:03:15.352Z,22.30
2018-07-30T23:05:43.752Z,22.30
2018-07-30T23:08:12.309Z,22.20
2018-07-30T23:10:40.901Z,22.20
2018-07-30T23:13:09.557Z,22.10
2018-07-30T23:15:38.093Z,22.00
2018-07-30T23:18:06.653Z,21.90
2018-07-30T23:20:35.186Z,21.90
2018-07-30T23:23:03.821Z,21.80
2018-07-30T23:25:32.465Z,21.80
2018-07-30T23:28:00.972Z,21.70
2018-07-30T23:30:29.667Z,21.70
2018-07-30T23:32:58.253Z,21.60
2018-07-30T23:35:26.658Z,21.60
2018-07-30T23:37:55.336Z,21.50
2018-07-30T23:40:24.165Z,21.60
2018-07-30T23:42:52.609Z,21.50
2018-07-30T23:45:21.229Z,21.50
2018-07-30T23:47:49.701Z,21.50
2018-07-30T23:50:18.346Z,21.50
2018-07-30T23:52:46.951Z,21.50
2018-07-30T23:55:15.613Z,21.50
2018-07-30T23:57:44.148Z,21.50
